createdAt,value
2022-11-19T00:02:36.691Z,13.60
2022-11-19T00:05:04.078Z,14.88
2022-11-19T00:38:03.616Z,16.30
2022-11-19T00:59:21.620Z,14.00
2022-11-19T01:10:38.672Z,14.40
2022-11-19T01:25:55.614Z,14.65
2022-11-19T01:28:22.865Z,16.35
2022-11-19T01:30:50.141Z,16.50
2022-11-19T01:33:17.610Z,13.43
2022-11-19T01:35:44.732Z,14.35
2022-11-19T01:38:11.925Z,16.88
2022-11-19T01:40:44.310Z,15.93
2022-11-19T01:43:13.030Z,15.75
2022-11-19T01:45:45.579Z,15.52
2022-11-19T01:48:23.126Z,15.30
2022-11-19T01:50:55.458Z,14.95
2022-11-19T01:53:26.408Z,15.05
2022-11-19T01:55:53.927Z,16.38
2022-11-19T01:58:23.599Z,15.35
2022-11-19T02:00:50.775Z,18.15
2022-11-19T02:03:19.008Z,14.13
2022-11-19T02:05:46.518Z,14.93
2022-11-19T02:08:46.673Z,14.02
2022-11-19T02:11:25.913Z,15.00
2022-11-19T02:14:12.556Z,15.02
2022-11-19T02:16:51.435Z,13.05
2022-11-19T02:19:35.027Z,13.15
2022-11-19T02:22:21.122Z,18.08
2022-11-19T02:24:56.002Z,13.75
2022-11-19T02:27:55.752Z,12.40
2022-11-19T02:30:22.944Z,14.52
2022-11-19T02:33:16.382Z,15.60
2022-11-19T02:36:00.006Z,14.73
2022-11-19T02:38:29.272Z,14.57
2022-11-19T02:40:59.428Z,13.60
2022-11-19T02:43:33.710Z,14.50
2022-11-19T02:46:09.666Z,13.13
2022-11-19T02:48:46.814Z,13.32
2022-11-19T02:51:14.738Z,11.98
2022-11-19T02:53:41.869Z,14.40
2022-11-19T02:56:35.371Z,14.57
2022-11-19T02:59:38.359Z,12.75
2022-11-19T03:02:25.528Z,14.07
2022-11-19T03:04:53.244Z,12.43
2022-11-19T03:07:21.625Z,13.73
2022-11-19T03:09:53.242Z,12.68
2022-11-19T03:12:38.664Z,12.13
2022-11-19T03:15:29.390Z,11.93
2022-11-19T03:17:59.400Z,13.05
2022-11-19T03:20:37.184Z,12.02
2022-11-19T03:23:43.812Z,13.27
2022-11-19T03:26:17.660Z,14.13
2022-11-19T03:28:46.541Z,13.95
2022-11-19T03:31:15.253Z,13.07
2022-11-19T03:33:44.896Z,13.93
2022-11-19T03:36:14.910Z,11.10
2022-11-19T03:38:44.621Z,10.35
2022-11-19T03:41:13.883Z,9.68
2022-11-19T03:43:44.559Z,11.68
2022-11-19T03:46:15.356Z,12.15
2022-11-19T03:48:45.498Z,11.95
2022-11-19T03:51:16.141Z,12.27
2022-11-19T03:53:43.345Z,10.95
2022-11-19T03:56:17.575Z,10.48
2022-11-19T03:58:47.364Z,10.82
2022-11-19T04:01:14.546Z,13.95
2022-11-19T04:04:01.642Z,14.57
2022-11-19T04:06:28.802Z,10.48
2022-11-19T04:08:56.076Z,12.73
2022-11-19T04:13:49.329Z,12.65
2022-11-19T04:16:16.557Z,10.23
2022-11-19T04:18:43.717Z,10.98
2022-11-19T04:21:10.894Z,11.18
2022-11-19T04:23:38.098Z,13.63
2022-11-19T04:26:05.520Z,11.40
2022-11-19T04:32:46.358Z,10.32
2022-11-19T04:35:14.219Z,12.20
2022-11-19T04:37:46.421Z,12.18
2022-11-19T04:40:15.491Z,12.95
2022-11-19T04:42:43.159Z,13.32
2022-11-19T04:45:11.820Z,11.07
2022-11-19T04:47:40.101Z,10.65
2022-11-19T04:50:11.880Z,10.35
2022-11-19T04:52:50.709Z,12.98
2022-11-19T04:55:24.134Z,12.75
2022-11-19T04:57:53.362Z,12.23
2022-11-19T05:00:21.630Z,12.90
2022-11-19T05:02:55.025Z,12.82
2022-11-19T05:05:22.818Z,12.00
2022-11-19T05:08:02.149Z,14.75
2022-11-19T05:10:36.695Z,10.93
2022-11-19T05:13:04.227Z,14.52
2022-11-19T05:15:32.610Z,11.35
2022-11-19T05:18:00.188Z,10.68
2022-11-19T05:42:56.064Z,10.80
2022-11-19T05:58:47.270Z,9.38
2022-11-19T06:14:27.728Z,7.93
2022-11-19T07:00:51.478Z,8.18
2022-11-19T07:11:56.199Z,8.68
2022-11-19T07:14:23.375Z,8.80
2022-11-19T07:16:50.849Z,9.80
2022-11-19T07:19:18.365Z,10.25
2022-11-19T07:21:45.762Z,8.77
2022-11-19T07:24:16.108Z,14.48
2022-11-19T07:31:24.620Z,11.52
2022-11-19T07:33:52.037Z,10.90
2022-11-19T07:36:19.225Z,10.95
2022-11-19T07:38:47.066Z,9.20
2022-11-19T07:41:32.833Z,9.68
2022-11-19T07:43:59.983Z,9.65
2022-11-19T07:46:27.214Z,9.98
2022-11-19T07:48:55.335Z,8.60
2022-11-19T07:51:23.253Z,8.40
2022-11-19T07:53:50.910Z,9.23
2022-11-19T07:56:19.085Z,11.38
2022-11-19T07:58:46.753Z,8.77
2022-11-19T08:01:19.575Z,11.23
2022-11-19T08:03:50.751Z,7.97
2022-11-19T08:06:20.326Z,9.80
2022-11-19T08:13:09.893Z,7.45
2022-11-19T08:34:04.800Z,6.93
2022-11-19T08:36:32.004Z,6.93
2022-11-19T08:56:17.893Z,7.13
2022-11-19T08:58:45.516Z,7.45
2022-11-19T09:01:14.564Z,6.25
2022-11-19T09:03:41.846Z,6.25
2022-11-19T09:06:09.526Z,6.72
2022-11-19T09:08:36.721Z,7.65
2022-11-19T09:11:12.863Z,4.70
2022-11-19T09:13:41.349Z,5.82
2022-11-19T09:16:10.007Z,4.80
2022-11-19T09:18:39.188Z,7.18
2022-11-19T09:21:07.827Z,3.88
2022-11-19T09:23:35.061Z,9.40
2022-11-19T10:04:48.067Z,5.63
2022-11-19T10:11:59.947Z,5.45
2022-11-19T10:28:43.714Z,6.20
2022-11-19T10:39:51.603Z,4.75
2022-11-19T10:55:38.127Z,4.25
2022-11-19T10:58:14.311Z,4.95
2022-11-19T11:00:42.038Z,7.43
2022-11-19T11:03:32.647Z,4.55
2022-11-19T11:06:02.630Z,7.30
2022-11-19T11:08:29.961Z,5.32
2022-11-19T11:10:57.880Z,4.40
2022-11-19T11:13:52.800Z,4.63
2022-11-19T11:16:42.734Z,4.03
2022-11-19T11:19:20.581Z,4.63
2022-11-19T11:21:52.432Z,5.07
2022-11-19T11:24:19.621Z,5.18
2022-11-19T11:26:46.818Z,4.88
2022-11-19T11:29:14.004Z,6.88
2022-11-19T11:31:43.668Z,8.43
2022-11-19T11:34:30.272Z,5.28
2022-11-19T11:37:00.273Z,5.65
2022-11-19T11:39:31.207Z,4.85
2022-11-19T11:42:05.973Z,6.32
2022-11-19T11:44:36.670Z,6.30
2022-11-19T11:47:11.588Z,5.35
2022-11-19T11:49:41.494Z,6.72
2022-11-19T11:52:11.703Z,5.10
2022-11-19T11:55:13.128Z,6.00
2022-11-19T11:57:59.318Z,6.68
2022-11-19T12:03:07.972Z,6.03
2022-11-19T12:05:49.978Z,7.07
2022-11-19T12:08:27.224Z,8.55
2022-11-19T12:11:17.994Z,6.88
2022-11-19T12:13:55.491Z,6.70
2022-11-19T12:16:50.127Z,5.38
2022-11-19T12:19:26.419Z,7.38
2022-11-19T12:22:09.833Z,6.10
2022-11-19T12:24:57.893Z,7.82
2022-11-19T12:27:38.593Z,7.55
2022-11-19T12:30:19.117Z,9.32
2022-11-19T12:33:08.363Z,8.88
2022-11-19T12:35:49.627Z,8.88
2022-11-19T12:38:20.718Z,7.95
2022-11-19T12:40:58.834Z,7.78
2022-11-19T12:43:47.893Z,9.93
2022-11-19T12:46:32.857Z,8.45
2022-11-19T13:10:38.458Z,9.52
2022-11-19T13:47:58.141Z,14.73
2022-11-19T13:50:37.505Z,7.53
2022-11-19T13:53:13.983Z,10.73
2022-11-19T13:55:42.226Z,10.77
2022-11-19T13:58:18.670Z,10.10
2022-11-19T14:01:18.144Z,9.85
2022-11-19T14:30:19.800Z,8.52
2022-11-19T14:37:23.594Z,9.40
2022-11-19T14:53:18.713Z,10.68
2022-11-19T15:04:29.594Z,11.93
2022-11-19T16:41:00.722Z,12.15
2022-11-19T16:52:48.735Z,12.63
2022-11-19T17:44:31.863Z,14.27
2022-11-19T17:47:24.584Z,12.95
2022-11-19T18:02:49.319Z,13.82
2022-11-19T18:10:01.079Z,15.70
2022-11-19T18:12:34.185Z,16.25
2022-11-19T18:15:35.767Z,14.40
2022-11-19T18:26:37.153Z,13.85
2022-11-19T18:42:20.733Z,16.48
2022-11-19T18:44:50.668Z,17.58
2022-11-19T18:47:18.833Z,17.70
2022-11-19T18:49:45.972Z,18.63
2022-11-19T19:14:18.665Z,19.50
2022-11-19T19:25:23.486Z,17.25
2022-11-19T19:37:03.114Z,24.50
2022-11-19T19:39:33.434Z,16.25
2022-11-19T19:55:36.377Z,16.95
2022-11-19T20:06:50.233Z,15.05
2022-11-19T20:17:29.949Z,13.77
2022-11-19T20:19:56.859Z,17.02
2022-11-19T20:22:24.064Z,13.15
2022-11-19T20:24:51.249Z,15.15
2022-11-19T20:27:18.502Z,22.83
2022-11-19T20:29:45.779Z,14.25
2022-11-19T20:32:13.023Z,13.68
2022-11-19T20:34:41.913Z,12.32
2022-11-19T20:37:09.165Z,11.70
2022-11-19T20:39:36.748Z,12.63
2022-11-19T20:42:22.672Z,11.20
2022-11-19T20:44:49.996Z,11.32
2022-11-19T20:47:17.153Z,12.68
2022-11-19T20:49:44.502Z,14.15
2022-11-19T20:52:13.190Z,13.55
2022-11-19T21:11:33.086Z,16.50
2022-11-19T21:22:38.585Z,14.55
2022-11-19T21:56:01.299Z,20.75
2022-11-19T22:20:04.943Z,16.67
2022-11-19T22:27:24.514Z,22.02
2022-11-19T22:43:22.916Z,15.90
2022-11-19T22:45:50.635Z,20.48
2022-11-19T23:15:04.003Z,23.30
2022-11-19T23:26:24.849Z,17.70
2022-11-19T23:54:38.682Z,17.80
